Time;durP1;ratioP1;P1;durP2;ratioP2;P2;SDS_P1;SDS_P2;PMS_P1;PMS_P2;Temp;Humidity;BMP_temperature;BMP_pressure;BME280_temperature;BME280_humidity;BME280_pressure;Samples;Min_cycle;Max_cycle;Signal;HPM_P1;HPM_P2
2023/12/18 07:18:26;;;;;;;36.90;21.50;;;;;;;8.62;74.09;100408.95;108569;1257;616728;-96
2023/12/18 07:21:21;;;;;;;33.40;19.50;;;;;;;9.14;72.13;100406.92;107536;1248;5078000;-93
2023/12/18 07:25:02;;;;;;;33.40;19.60;;;;;;;9.22;71.95;100406.16;104640;1291;599716;-67
2023/12/18 07:27:30;;;;;;;36.40;18.20;;;;;;;9.10;71.95;100400.34;107284;1270;59784;-66
2023/12/18 07:29:56;;;;;;;33.80;17.30;;;;;;;8.87;72.93;100402.70;107210;1266;60396;-67
2023/12/18 07:32:23;;;;;;;35.10;19.60;;;;;;;8.95;72.64;100404.77;107257;1265;72292;-67
2023/12/18 07:34:51;;;;;;;39.00;19.50;;;;;;;9.23;71.74;100408.94;107288;1266;70292;-63
2023/12/18 07:37:18;;;;;;;36.60;19.10;;;;;;;9.16;71.78;100412.64;107513;1260;109772;-66
2023/12/18 07:39:45;;;;;;;37.10;20.40;;;;;;;9.23;71.32;100410.52;107837;1256;61109;-65
2023/12/18 07:42:12;;;;;;;37.00;19.80;;;;;;;8.99;72.28;100409.39;107733;1256;60285;-67
2023/12/18 07:44:38;;;;;;;38.90;20.30;;;;;;;8.94;72.50;100413.73;107710;1256;72241;-65
2023/12/18 07:47:07;;;;;;;39.50;20.80;;;;;;;8.86;73.06;100420.06;107681;1256;69596;-64
2023/12/18 07:49:35;;;;;;;41.10;20.00;;;;;;;8.98;72.76;100422.74;107522;1257;73009;-67
2023/12/18 07:52:02;;;;;;;35.00;19.50;;;;;;;8.97;72.54;100424.50;107639;1256;60752;-67
2023/12/18 07:54:29;;;;;;;34.20;18.80;;;;;;;8.91;72.75;100425.00;107733;1256;61308;-66
2023/12/18 07:56:56;;;;;;;34.40;18.80;;;;;;;8.99;72.42;100421.64;107857;1256;71669;-64
2023/12/18 07:59:23;;;;;;;41.30;21.90;;;;;;;9.02;72.39;100424.39;107864;1256;70681;-67
2023/12/18 08:01:50;;;;;;;35.80;19.30;;;;;;;9.11;72.04;100421.16;107924;1256;73459;-66
2023/12/18 08:04:16;;;;;;;48.40;23.70;;;;;;;9.12;71.78;100418.16;107818;1258;61164;-65
2023/12/18 08:06:43;;;;;;;41.00;20.50;;;;;;;9.25;71.45;100417.30;107724;1259;60366;-66
2023/12/18 08:09:10;;;;;;;39.40;21.10;;;;;;;9.20;71.45;100417.43;107836;1256;73472;-71
2023/12/18 08:11:38;;;;;;;37.60;21.00;;;;;;;9.15;71.56;100418.27;107841;1256;70204;-67
2023/12/18 08:14:04;;;;;;;35.80;19.90;;;;;;;9.10;71.76;100417.52;107764;1256;71155;-66
2023/12/18 08:16:31;;;;;;;43.50;22.10;;;;;;;9.00;71.88;100412.52;107730;1256;61467;-68
2023/12/18 08:18:58;;;;;;;40.80;22.30;;;;;;;9.02;71.93;100414.04;107948;1257;59495;-67
2023/12/18 08:21:26;;;;;;;45.40;22.60;;;;;;;9.12;71.57;100415.20;107747;1259;73000;-68
2023/12/18 08:23:53;;;;;;;46.60;25.40;;;;;;;9.21;71.23;100408.30;107614;1259;70790;-68
2023/12/18 08:26:20;;;;;;;42.30;22.10;;;;;;;9.27;70.92;100406.40;107665;1257;73303;-67
2023/12/18 08:28:46;;;;;;;49.50;23.80;;;;;;;9.22;71.13;100407.05;107764;1258;60525;-65
2023/12/18 08:31:13;;;;;;;47.80;23.70;;;;;;;9.15;71.48;100406.20;107700;1257;59213;-66
2023/12/18 08:33:40;;;;;;;45.00;22.80;;;;;;;9.24;71.25;100405.94;107877;1257;73400;-67
2023/12/18 08:36:07;;;;;;;46.40;23.30;;;;;;;9.22;71.08;100401.27;107713;1258;70243;-67
2023/12/18 08:38:34;;;;;;;42.80;21.30;;;;;;;9.25;71.12;100402.08;107741;1262;72518;-65
2023/12/18 08:41:01;;;;;;;49.80;25.00;;;;;;;9.21;71.28;100404.27;107695;1258;61092;-60
2023/12/18 08:43:28;;;;;;;52.50;25.30;;;;;;;9.30;71.09;100401.56;107601;1258;61385;-67
2023/12/18 08:45:55;;;;;;;47.00;24.50;;;;;;;9.27;71.05;100402.20;107680;1257;73607;-68
2023/12/18 08:48:22;;;;;;;50.70;26.10;;;;;;;9.31;71.01;100406.80;107748;1258;70573;-67
2023/12/18 08:50:49;;;;;;;52.80;26.40;;;;;;;9.27;71.15;100408.48;107779;1259;73549;-68
2023/12/18 08:53:15;;;;;;;47.50;25.20;;;;;;;9.20;71.50;100409.05;107782;1258;61223;-68
2023/12/18 08:55:42;;;;;;;47.90;25.70;;;;;;;9.22;71.54;100406.52;107627;1258;59528;-67
2023/12/18 08:58:09;;;;;;;53.20;25.20;;;;;;;9.28;71.33;100401.98;107654;1257;73276;-67
2023/12/18 09:00:36;;;;;;;50.40;26.30;;;;;;;9.25;71.34;100406.61;107782;1257;70453;-65
2023/12/18 09:03:04;;;;;;;51.90;25.20;;;;;;;9.28;71.13;100406.19;107772;1257;71217;-67
2023/12/18 09:05:31;;;;;;;50.10;25.90;;;;;;;9.22;71.36;100407.91;107705;1257;59979;-64
2023/12/18 09:07:58;;;;;;;49.00;25.60;;;;;;;9.31;71.01;100409.23;107651;1257;61381;-66
2023/12/18 09:10:24;;;;;;;44.10;23.50;;;;;;;9.32;71.06;100406.94;107797;1263;73467;-66
2023/12/18 09:12:52;;;;;;;52.90;26.00;;;;;;;9.32;71.00;100405.20;107738;1258;71555;-66
2023/12/18 09:15:21;;;;;;;46.30;22.40;;;;;;;9.28;71.17;100406.36;107774;1256;72661;-67
2023/12/18 09:17:48;;;;;;;49.90;26.60;;;;;;;9.19;71.56;100405.36;107632;1256;61167;-65
2023/12/18 09:20:17;;;;;;;53.70;27.20;;;;;;;9.33;71.22;100404.66;107906;1256;61548;-66
2023/12/18 09:22:48;;;;;;;57.70;26.30;;;;;;;9.47;70.94;100402.34;107896;1256;71782;-67
2023/12/18 09:25:15;;;;;;;52.70;27.10;;;;;;;9.63;70.80;100405.21;108197;1255;70653;-65
2023/12/18 09:27:42;;;;;;;57.80;28.70;;;;;;;9.69;70.75;100406.60;107810;1255;74033;-66
2023/12/18 09:30:10;;;;;;;53.90;26.70;;;;;;;9.57;71.12;100405.56;107899;1256;61216;-66
2023/12/18 09:32:38;;;;;;;55.20;26.50;;;;;;;9.52;71.14;100407.27;107950;1256;60345;-67
2023/12/18 09:35:06;;;;;;;53.20;25.50;;;;;;;9.51;71.10;100401.87;107894;1256;71808;-67
2023/12/18 09:37:33;;;;;;;52.10;26.00;;;;;;;9.56;70.80;100401.19;107987;1253;70120;-67
2023/12/18 09:39:59;;;;;;;55.70;27.20;;;;;;;9.66;70.21;100400.38;108145;1253;72898;-67
2023/12/18 09:42:26;;;;;;;47.50;24.70;;;;;;;9.69;70.18;100404.16;108065;1253;61090;-68
2023/12/18 09:44:53;;;;;;;52.00;25.90;;;;;;;9.63;70.21;100405.73;108055;1253;61013;-67
2023/12/18 09:47:20;;;;;;;54.90;27.50;;;;;;;9.62;70.05;100404.70;108119;1253;71922;-67
2023/12/18 09:49:46;;;;;;;52.30;25.30;;;;;;;9.70;69.67;100400.45;107958;1253;68487;-68
2023/12/18 09:52:13;;;;;;;55.60;26.80;;;;;;;9.71;69.58;100405.16;107992;1254;73015;-68
2023/12/18 09:54:42;;;;;;;54.00;25.40;;;;;;;9.73;69.50;100404.21;108012;1253;60220;-67
2023/12/18 09:57:08;;;;;;;53.50;25.70;;;;;;;9.67;69.58;100405.62;107959;1253;59425;-67
2023/12/18 09:59:35;;;;;;;53.90;26.60;;;;;;;9.60;69.80;100406.36;107931;1253;73138;-66
2023/12/18 10:02:02;;;;;;;51.10;24.90;;;;;;;9.56;69.95;100407.67;107967;1255;70527;-67
2023/12/18 10:04:29;;;;;;;50.90;26.90;;;;;;;9.53;69.94;100405.16;108117;1253;72614;-66
2023/12/18 10:06:56;;;;;;;48.90;25.30;;;;;;;9.53;70.09;100401.13;108111;1253;60064;-67
2023/12/18 10:09:23;;;;;;;48.10;24.10;;;;;;;9.53;70.05;100403.90;108110;1253;60383;-67
2023/12/18 10:11:50;;;;;;;47.60;25.00;;;;;;;9.50;69.99;100397.88;107913;1253;72832;-65
2023/12/18 10:14:20;;;;;;;43.70;23.00;;;;;;;9.35;70.82;100398.98;107985;1253;70806;-67
2023/12/18 10:16:47;;;;;;;56.60;26.60;;;;;;;9.43;70.46;100398.23;108146;1253;72531;-66
2023/12/18 10:19:13;;;;;;;52.70;26.20;;;;;;;9.55;70.15;100396.48;108109;1253;61367;-67
2023/12/18 10:21:40;;;;;;;50.90;26.00;;;;;;;9.63;69.98;100390.82;108140;1253;60100;-67
2023/12/18 10:24:08;;;;;;;57.60;28.50;;;;;;;9.53;70.29;100388.85;108177;1253;71665;-65
2023/12/18 10:26:35;;;;;;;44.70;25.40;;;;;;;9.46;70.75;100392.54;108147;1253;70168;-68
2023/12/18 10:29:02;;;;;;;51.70;26.20;;;;;;;9.45;70.91;100389.95;108066;1253;72567;-65
2023/12/18 10:31:29;;;;;;;49.20;26.10;;;;;;;9.52;70.84;100390.64;108097;1253;62202;-66
2023/12/18 10:33:56;;;;;;;47.00;24.00;;;;;;;9.58;70.63;100387.83;108227;1253;59970;-67
2023/12/18 10:36:23;;;;;;;54.80;26.90;;;;;;;9.55;70.76;100388.96;108056;1254;73128;-65
2023/12/18 10:38:50;;;;;;;54.60;26.80;;;;;;;9.56;70.76;100383.33;107955;1254;70535;-67
2023/12/18 10:41:23;;;;;;;43.90;21.40;;;;;;;9.56;70.73;100386.49;108038;1254;72773;-66
2023/12/18 10:43:50;;;;;;;52.70;26.40;;;;;;;9.67;70.47;100390.35;108092;1254;61230;-68
2023/12/18 10:46:18;;;;;;;46.70;24.60;;;;;;;9.65;70.49;100393.23;108053;1254;61467;-67
2023/12/18 10:48:48;;;;;;;54.40;26.10;;;;;;;9.69;70.29;100393.64;107862;1256;71841;-67
2023/12/18 10:51:14;;;;;;;51.20;26.10;;;;;;;9.57;70.64;100394.16;107971;1258;70270;-64
2023/12/18 10:53:41;;;;;;;46.90;23.80;;;;;;;9.50;70.91;100390.32;107892;1260;72940;-66
2023/12/18 10:56:08;;;;;;;52.50;27.20;;;;;;;9.55;70.71;100394.58;108087;1256;61145;-65
2023/12/18 10:58:35;;;;;;;49.50;25.20;;;;;;;9.49;70.95;100397.18;108018;1255;60455;-67
2023/12/18 11:01:03;;;;;;;42.60;21.30;;;;;;;9.48;71.06;100395.98;107833;1256;73061;-66
2023/12/18 11:03:30;;;;;;;52.30;27.50;;;;;;;9.47;71.11;100394.96;107988;1255;69467;-67
2023/12/18 11:05:57;;;;;;;48.00;24.60;;;;;;;9.50;71.11;100397.52;108150;1256;73094;-67
2023/12/18 11:08:24;;;;;;;49.30;26.80;;;;;;;9.56;70.95;100397.51;107961;1253;59940;-67
2023/12/18 11:10:51;;;;;;;49.30;25.80;;;;;;;9.52;71.29;100398.52;108098;1254;59590;-66
2023/12/18 11:13:29;;;;;;;52.00;24.90;;;;;;;9.61;71.01;100398.10;108073;1253;72987;-66
2023/12/18 11:16:25;;;;;;;52.60;27.90;;;;;;;9.71;70.80;100401.84;108065;1258;69505;-65
2023/12/18 11:19:03;;;;;;;45.50;22.20;;;;;;;9.71;70.77;100402.88;107998;1254;73869;-65
2023/12/18 11:21:49;;;;;;;47.40;23.80;;;;;;;9.69;70.74;100405.20;108033;1255;59887;-67
2023/12/18 11:24:16;;;;;;;46.40;24.50;;;;;;;9.92;69.96;100402.27;108034;1254;60337;-65
2023/12/18 11:26:45;;;;;;;46.40;21.90;;;;;;;9.91;69.95;100410.00;108043;1258;73456;-64
2023/12/18 11:29:51;;;;;;;46.80;24.00;;;;;;;9.85;70.18;100410.34;108141;1254;70409;-65
2023/12/18 11:32:51;;;;;;;41.70;24.10;;;;;;;9.89;69.96;100413.59;107539;1262;71701;-66
2023/12/18 11:35:25;;;;;;;41.30;22.40;;;;;;;9.81;70.23;100418.35;107355;1261;61241;-65
2023/12/18 11:37:52;;;;;;;41.50;21.60;;;;;;;9.76;70.41;100416.75;107943;1253;60361;-67
2023/12/18 11:40:31;;;;;;;43.80;23.20;;;;;;;9.73;70.59;100412.63;108177;1253;73707;-66
2023/12/18 11:42:58;;;;;;;42.80;22.40;;;;;;;9.81;70.34;100417.64;108129;1253;69810;-68
2023/12/18 11:45:25;;;;;;;36.40;20.10;;;;;;;9.93;69.85;100420.63;108182;1253;72548;-66
2023/12/18 11:47:59;;;;;;;38.00;21.40;;;;;;;10.03;69.29;100413.69;108225;1253;62104;-67
2023/12/18 11:50:26;;;;;;;34.70;19.70;;;;;;;10.04;69.15;100413.47;108139;1253;60818;-68
2023/12/18 11:52:54;;;;;;;41.30;20.10;;;;;;;9.97;69.47;100414.75;108115;1253;73671;-67
2023/12/18 11:55:50;;;;;;;40.90;21.90;;;;;;;10.04;69.29;100416.45;108149;1253;70390;-66
2023/12/18 11:58:24;;;;;;;34.50;19.20;;;;;;;10.19;68.97;100422.29;108112;1253;72700;-67
2023/12/18 12:00:50;;;;;;;43.80;22.60;;;;;;;10.26;68.62;100428.05;107994;1253;61028;-67
2023/12/18 12:03:18;;;;;;;33.80;19.10;;;;;;;10.37;68.29;100428.98;108157;1253;60209;-65
2023/12/18 12:05:45;;;;;;;37.20;20.10;;;;;;;10.31;68.43;100433.89;108230;1253;72585;-66
2023/12/18 12:08:12;;;;;;;35.90;20.40;;;;;;;10.44;68.01;100438.41;108233;1253;71522;-67
2023/12/18 12:10:40;;;;;;;33.90;19.20;;;;;;;10.44;68.02;100436.50;108095;1253;72508;-65
2023/12/18 12:13:07;;;;;;;35.00;19.10;;;;;;;10.38;68.07;100442.11;108138;1253;60298;-66
2023/12/18 12:15:34;;;;;;;35.50;20.00;;;;;;;10.32;68.19;100442.84;108197;1254;60292;-67
2023/12/18 12:18:04;;;;;;;33.00;18.60;;;;;;;10.35;68.14;100445.54;108087;1253;75134;-66
2023/12/18 12:20:32;;;;;;;37.20;19.60;;;;;;;10.40;67.99;100443.98;108147;1253;70709;-66
2023/12/18 12:22:59;;;;;;;33.70;18.80;;;;;;;10.38;68.03;100444.25;108158;1253;73727;-66
2023/12/18 12:25:26;;;;;;;37.70;19.20;;;;;;;10.36;68.15;100443.94;108122;1253;62140;-66
2023/12/18 12:27:53;;;;;;;33.20;18.70;;;;;;;10.28;68.29;100445.92;108134;1253;60303;-66
2023/12/18 12:30:21;;;;;;;27.20;17.00;;;;;;;10.33;68.31;100448.61;108223;1253;73702;-68
2023/12/18 12:32:48;;;;;;;32.40;17.80;;;;;;;10.30;68.20;100447.80;108274;1253;70386;-62
2023/12/18 12:35:18;;;;;;;32.90;18.10;;;;;;;10.32;68.04;100450.02;107911;1253;72733;-64
2023/12/18 12:37:45;;;;;;;30.40;16.50;;;;;;;10.33;68.20;100449.30;107977;1255;61016;-67
2023/12/18 12:40:13;;;;;;;31.40;18.60;;;;;;;10.37;67.92;100447.25;108167;1253;60501;-66
2023/12/18 12:42:41;;;;;;;31.90;16.30;;;;;;;10.35;68.09;100446.45;108149;1253;74140;-66
2023/12/18 12:45:11;;;;;;;35.30;18.60;;;;;;;10.36;68.03;100449.21;108122;1253;70444;-67
2023/12/18 12:47:39;;;;;;;29.70;16.90;;;;;;;10.28;68.22;100446.98;108151;1253;72340;-66
2023/12/18 12:50:07;;;;;;;30.60;17.30;;;;;;;10.19;68.48;100450.55;108190;1253;60752;-66
2023/12/18 12:52:37;;;;;;;35.20;18.50;;;;;;;10.29;68.17;100455.90;108202;1253;61405;-67
2023/12/18 12:55:05;;;;;;;30.60;17.70;;;;;;;10.24;68.27;100463.55;108199;1253;73779;-67
2023/12/18 12:57:32;;;;;;;38.70;20.70;;;;;;;10.07;69.16;100465.48;108183;1253;70423;-67
2023/12/18 12:59:59;;;;;;;34.00;19.10;;;;;;;10.07;69.04;100464.43;108185;1253;71566;-66
2023/12/18 13:02:26;;;;;;;32.50;18.10;;;;;;;10.05;69.13;100464.13;108119;1253;61231;-65
2023/12/18 13:04:53;;;;;;;34.70;18.30;;;;;;;10.20;68.49;100468.59;108327;1253;60339;-66
2023/12/18 13:07:21;;;;;;;33.10;18.90;;;;;;;10.06;68.89;100461.13;108191;1255;71459;-66
2023/12/18 13:09:48;;;;;;;28.10;16.30;;;;;;;10.02;69.17;100460.18;107992;1253;69021;-67
2023/12/18 13:12:15;;;;;;;33.70;19.20;;;;;;;10.03;69.07;100462.78;108154;1253;71502;-66
2023/12/18 13:14:48;;;;;;;31.50;18.00;;;;;;;9.99;69.37;100462.92;108060;1253;62261;-67
2023/12/18 13:17:15;;;;;;;27.90;17.40;;;;;;;9.96;69.55;100463.69;108186;1253;60348;-67
2023/12/18 13:19:43;;;;;;;35.00;18.80;;;;;;;9.96;69.61;100467.05;108193;1253;72708;-67
2023/12/18 13:22:10;;;;;;;34.80;17.90;;;;;;;9.97;69.75;100462.98;108031;1253;69443;-67
2023/12/18 13:24:37;;;;;;;33.50;19.10;;;;;;;9.99;69.42;100463.95;108124;1253;71527;-65
2023/12/18 13:27:04;;;;;;;34.60;18.80;;;;;;;10.04;69.45;100468.55;108136;1253;60956;-68
2023/12/18 13:29:34;;;;;;;30.50;18.60;;;;;;;10.07;69.31;100468.80;108054;1256;60336;-68
2023/12/18 13:32:02;;;;;;;37.50;20.90;;;;;;;10.01;69.50;100471.43;108109;1253;73558;-67
2023/12/18 13:34:30;;;;;;;29.40;17.00;;;;;;;9.92;69.97;100472.75;108225;1253;70218;-67
2023/12/18 13:36:58;;;;;;;32.40;19.00;;;;;;;9.87;70.10;100475.52;108175;1253;72849;-67
2023/12/18 13:39:25;;;;;;;32.50;19.60;;;;;;;9.85;70.13;100479.61;108017;1255;61455;-67
2023/12/18 13:41:55;;;;;;;31.70;17.60;;;;;;;9.84;70.28;100477.70;108126;1253;59807;-68
2023/12/18 13:44:25;;;;;;;32.10;18.40;;;;;;;9.79;70.32;100481.01;108125;1253;73954;-67
2023/12/18 13:46:52;;;;;;;35.80;19.50;;;;;;;9.73;70.87;100484.00;108165;1253;70450;-67
2023/12/18 13:49:19;;;;;;;37.20;20.10;;;;;;;9.63;71.05;100489.70;108123;1257;72901;-67
2023/12/18 13:51:46;;;;;;;34.50;19.30;;;;;;;9.59;71.36;100491.55;108145;1253;61171;-69
2023/12/18 13:54:13;;;;;;;29.30;18.50;;;;;;;9.65;71.25;100497.71;108132;1257;60371;-67
2023/12/18 13:56:40;;;;;;;35.90;19.70;;;;;;;9.75;70.83;100502.52;108179;1253;74508;-67
2023/12/18 13:59:07;;;;;;;35.30;19.10;;;;;;;9.81;70.66;100502.36;108125;1253;70544;-66
2023/12/18 14:01:34;;;;;;;35.10;19.30;;;;;;;9.86;70.57;100499.21;108107;1253;72468;-68
2023/12/18 14:04:01;;;;;;;40.90;19.60;;;;;;;9.78;70.98;100502.97;108169;1253;60231;-68
2023/12/18 14:06:29;;;;;;;33.60;20.00;;;;;;;9.73;71.41;100501.90;108135;1253;60309;-68
2023/12/18 14:08:56;;;;;;;33.80;18.90;;;;;;;9.80;71.02;100500.98;108100;1253;73885;-67
2023/12/18 14:11:23;;;;;;;40.90;22.50;;;;;;;9.77;71.05;100501.40;108093;1253;70951;-66
2023/12/18 14:13:49;;;;;;;41.10;21.00;;;;;;;9.81;70.87;100506.58;108092;1253;74075;-67
2023/12/18 14:16:16;;;;;;;39.30;20.30;;;;;;;9.75;71.15;100503.02;108199;1253;60502;-68
2023/12/18 14:18:43;;;;;;;35.00;19.30;;;;;;;9.74;71.40;100501.48;107939;1253;61441;-68
2023/12/18 14:21:10;;;;;;;35.00;18.30;;;;;;;9.76;71.33;100505.12;108096;1253;73750;-64
2023/12/18 14:23:37;;;;;;;39.10;20.60;;;;;;;9.71;71.52;100507.02;108178;1253;70198;-66
2023/12/18 14:26:04;;;;;;;39.70;20.30;;;;;;;9.70;71.57;100504.06;108147;1253;72779;-68
2023/12/18 14:28:30;;;;;;;45.10;22.60;;;;;;;9.74;71.46;100505.35;108015;1253;61056;-68
2023/12/18 14:30:57;;;;;;;36.30;21.20;;;;;;;9.78;71.37;100509.27;108149;1254;60385;-67
2023/12/18 14:33:24;;;;;;;37.70;20.60;;;;;;;9.78;71.44;100511.20;108153;1253;72560;-67
2023/12/18 14:35:51;;;;;;;39.20;20.70;;;;;;;9.78;71.42;100512.41;108150;1254;69152;-68
2023/12/18 14:38:19;;;;;;;34.10;18.90;;;;;;;9.87;71.15;100518.66;108194;1256;73937;-67
2023/12/18 14:40:46;;;;;;;39.20;21.40;;;;;;;9.99;70.97;100523.60;108198;1255;60226;-68
2023/12/18 14:43:13;;;;;;;38.10;20.00;;;;;;;9.96;71.16;100526.49;107993;1253;60305;-67
2023/12/18 14:45:40;;;;;;;42.90;21.10;;;;;;;9.84;71.51;100527.17;108204;1253;74856;-67
2023/12/18 14:48:07;;;;;;;44.80;23.40;;;;;;;9.86;71.55;100529.91;108129;1253;70424;-68
2023/12/18 14:50:34;;;;;;;39.90;23.00;;;;;;;9.90;71.43;100536.30;108136;1254;71324;-66
2023/12/18 14:53:01;;;;;;;38.90;20.70;;;;;;;9.99;71.05;100533.24;108156;1253;60188;-68
2023/12/18 14:55:30;;;;;;;40.50;22.30;;;;;;;10.05;70.87;100535.52;108219;1253;60415;-66
2023/12/18 14:58:02;;;;;;;37.20;21.10;;;;;;;9.97;71.10;100540.14;108150;1256;72086;-68
2023/12/18 15:00:28;;;;;;;47.20;24.30;;;;;;;9.93;71.34;100541.48;108224;1253;68774;-67
2023/12/18 15:02:55;;;;;;;42.60;22.30;;;;;;;9.93;71.37;100543.42;108178;1253;70826;-67
2023/12/18 15:05:25;;;;;;;41.10;22.90;;;;;;;9.95;71.47;100546.17;108166;1253;61033;-67
2023/12/18 15:07:53;;;;;;;48.10;25.30;;;;;;;9.92;71.43;100547.14;108288;1253;60530;-68
2023/12/18 15:10:22;;;;;;;36.60;21.20;;;;;;;10.00;71.19;100544.79;108265;1253;72063;-68
2023/12/18 15:12:49;;;;;;;37.70;22.00;;;;;;;10.03;70.89;100545.76;108220;1256;70400;-68
2023/12/18 15:15:16;;;;;;;43.80;22.50;;;;;;;10.21;70.41;100548.59;108207;1257;72933;-70
2023/12/18 15:17:43;;;;;;;45.80;24.10;;;;;;;10.02;70.89;100545.82;108188;1253;60302;-67
2023/12/18 15:20:10;;;;;;;51.70;26.20;;;;;;;9.97;71.18;100545.94;108196;1254;59250;-67
2023/12/18 15:22:37;;;;;;;47.10;24.90;;;;;;;10.00;71.07;100546.73;108198;1253;73825;-68
2023/12/18 15:25:05;;;;;;;43.00;23.00;;;;;;;10.09;70.74;100546.12;108151;1256;70450;-67
2023/12/18 15:27:32;;;;;;;54.60;27.40;;;;;;;10.09;70.65;100551.39;108188;1257;74040;-67
2023/12/18 15:29:59;;;;;;;44.00;22.60;;;;;;;10.08;70.68;100550.38;108141;1256;60384;-67
2023/12/18 15:32:26;;;;;;;49.50;26.30;;;;;;;9.98;70.88;100548.70;108189;1253;60461;-68
2023/12/18 15:34:54;;;;;;;45.60;24.70;;;;;;;10.02;70.92;100549.50;108193;1253;74068;-67
2023/12/18 15:37:22;;;;;;;39.30;21.70;;;;;;;9.97;70.97;100552.24;108164;1256;70401;-68
2023/12/18 15:39:49;;;;;;;46.60;24.00;;;;;;;10.01;70.84;100552.49;108275;1257;72856;-68
2023/12/18 15:42:16;;;;;;;38.50;20.90;;;;;;;10.11;70.52;100552.02;108112;1258;61607;-68
2023/12/18 15:44:44;;;;;;;45.30;25.20;;;;;;;10.19;70.31;100558.13;108059;1254;60343;-68
2023/12/18 15:47:12;;;;;;;45.70;23.80;;;;;;;10.13;70.45;100559.02;108103;1253;74043;-67
2023/12/18 15:49:39;;;;;;;45.70;22.40;;;;;;;10.04;70.66;100562.59;108162;1254;70318;-67
2023/12/18 15:52:06;;;;;;;44.10;23.00;;;;;;;10.11;70.54;100563.06;108018;1255;72681;-67
2023/12/18 15:54:32;;;;;;;40.60;22.80;;;;;;;10.15;70.32;100564.89;108106;1254;60419;-66
2023/12/18 15:56:59;;;;;;;45.40;24.90;;;;;;;10.07;70.48;100564.42;108127;1252;60319;-67
2023/12/18 15:59:26;;;;;;;42.10;22.30;;;;;;;10.11;70.51;100565.00;108200;1256;73025;-67
2023/12/18 16:01:53;;;;;;;45.00;24.30;;;;;;;10.14;70.40;100566.69;108156;1254;70286;-67
2023/12/18 16:04:19;;;;;;;47.20;25.30;;;;;;;10.15;70.34;100566.11;108185;1256;72547;-68
2023/12/18 16:06:46;;;;;;;44.50;24.50;;;;;;;10.02;70.79;100572.10;108183;1254;60451;-68
2023/12/18 16:09:13;;;;;;;45.00;23.90;;;;;;;10.03;70.66;100575.05;108218;1253;60429;-68
2023/12/18 16:11:40;;;;;;;50.00;26.20;;;;;;;10.02;70.73;100574.04;108228;1256;72578;-67
2023/12/18 16:14:07;;;;;;;40.00;21.20;;;;;;;9.97;71.02;100573.13;108021;1255;70326;-67
2023/12/18 16:16:35;;;;;;;45.40;24.70;;;;;;;10.09;70.66;100571.90;108187;1254;71715;-69
2023/12/18 16:19:02;;;;;;;39.90;22.20;;;;;;;10.21;70.40;100568.05;108248;1257;61292;-68
2023/12/18 16:21:30;;;;;;;41.30;22.80;;;;;;;10.15;70.41;100568.55;108159;1254;61132;-67
2023/12/18 16:23:57;;;;;;;47.70;24.40;;;;;;;10.26;70.11;100566.70;108142;1253;72707;-67
2023/12/18 16:26:24;;;;;;;38.00;22.50;;;;;;;10.20;70.34;100564.93;108108;1257;69282;-69
2023/12/18 16:28:51;;;;;;;40.50;22.30;;;;;;;10.10;70.60;100562.77;108194;1257;72707;-68
2023/12/18 16:31:17;;;;;;;49.70;25.90;;;;;;;10.15;70.59;100557.02;108152;1256;60012;-67
2023/12/18 16:33:47;;;;;;;47.70;23.80;;;;;;;10.18;70.38;100559.54;108336;1253;60192;-68
2023/12/18 16:36:16;;;;;;;41.60;23.30;;;;;;;10.19;70.24;100557.94;108168;1254;72552;-67
2023/12/18 16:38:47;;;;;;;43.20;23.30;;;;;;;10.14;70.59;100554.76;108215;1254;70484;-67
2023/12/18 16:41:16;;;;;;;;;;;;;;;10.14;70.52;100552.28;108233;1256;72512;-67
2023/12/18 16:43:43;;;;;;;42.10;21.80;;;;;;;10.24;70.23;100553.41;108183;1253;60275;-67
2023/12/18 16:46:10;;;;;;;38.70;22.10;;;;;;;10.10;70.72;100554.52;108186;1256;60420;-67
2023/12/18 16:48:37;;;;;;;48.20;26.60;;;;;;;10.07;70.80;100556.87;108192;1253;75129;-67
2023/12/18 16:51:05;;;;;;;42.80;22.70;;;;;;;10.19;70.47;100558.46;108203;1257;70311;-67
2023/12/18 16:53:31;;;;;;;40.30;22.20;;;;;;;10.13;70.60;100558.98;108202;1254;72676;-68
2023/12/18 16:55:58;;;;;;;47.90;25.80;;;;;;;10.21;70.38;100554.73;108138;1254;60707;-67
2023/12/18 16:58:25;;;;;;;34.90;21.30;;;;;;;10.30;70.13;100558.70;108177;1253;59555;-68
2023/12/18 17:00:51;;;;;;;39.10;21.50;;;;;;;10.21;70.22;100562.46;108121;1254;72762;-68
2023/12/18 17:03:21;;;;;;;39.40;22.40;;;;;;;10.33;70.07;100568.61;108159;1254;69114;-68
2023/12/18 17:05:48;;;;;;;38.00;21.20;;;;;;;10.27;70.25;100569.85;108096;1256;72924;-68
2023/12/18 17:08:16;;;;;;;46.30;23.80;;;;;;;10.31;70.11;100571.66;108171;1254;61223;-68
2023/12/18 17:10:43;;;;;;;41.30;23.00;;;;;;;10.34;70.06;100568.95;108206;1257;60521;-68
2023/12/18 17:13:12;;;;;;;45.50;24.10;;;;;;;10.23;70.35;100567.85;108140;1253;73102;-66
2023/12/18 17:15:42;;;;;;;48.50;25.20;;;;;;;10.30;70.14;100567.14;108182;1257;69436;-67
2023/12/18 17:18:09;;;;;;;42.30;21.20;;;;;;;10.32;70.04;100565.85;108048;1254;73757;-68
2023/12/18 17:20:36;;;;;;;47.30;25.10;;;;;;;10.33;69.98;100570.55;108098;1253;60630;-67
2023/12/18 17:23:03;;;;;;;47.80;24.40;;;;;;;10.50;69.60;100570.27;108070;1253;60517;-68
2023/12/18 17:25:30;;;;;;;43.80;24.20;;;;;;;10.52;69.37;100572.46;108091;1255;74274;-68
2023/12/18 17:27:57;;;;;;;50.40;26.00;;;;;;;10.29;70.03;100572.95;108090;1253;70491;-67
2023/12/18 17:30:25;;;;;;;50.60;25.20;;;;;;;10.18;70.30;100570.60;108070;1254;72740;-67
2023/12/18 17:32:51;;;;;;;43.50;25.20;;;;;;;10.13;70.63;100572.49;108157;1254;60856;-68
2023/12/18 17:35:18;;;;;;;46.00;24.90;;;;;;;10.30;70.19;100576.61;108212;1254;60549;-68
2023/12/18 17:37:45;;;;;;;45.20;23.80;;;;;;;10.35;69.96;100574.89;108148;1253;72434;-68
2023/12/18 17:40:12;;;;;;;50.90;26.60;;;;;;;10.35;69.81;100576.81;108137;1254;70410;-66
2023/12/18 17:42:38;;;;;;;40.90;22.90;;;;;;;10.34;70.01;100576.86;108190;1254;73825;-69
2023/12/18 17:45:06;;;;;;;39.90;21.00;;;;;;;10.20;70.26;100581.40;108168;1255;61155;-68
2023/12/18 17:47:33;;;;;;;51.90;25.10;;;;;;;10.25;70.10;100577.09;108199;1256;60381;-68
2023/12/18 17:50:00;;;;;;;43.50;23.20;;;;;;;10.23;70.26;100582.04;108185;1254;73736;-66
2023/12/18 17:52:28;;;;;;;46.50;25.60;;;;;;;10.31;69.95;100576.58;108159;1254;68680;-68
2023/12/18 17:54:54;;;;;;;43.30;23.80;;;;;;;10.19;70.37;100578.30;108169;1254;71211;-68
2023/12/18 17:57:21;;;;;;;44.40;22.90;;;;;;;10.14;70.55;100581.96;108139;1254;61208;-66
2023/12/18 17:59:49;;;;;;;44.10;24.30;;;;;;;10.08;70.74;100584.23;108152;1252;60470;-65
2023/12/18 18:02:16;;;;;;;41.50;22.10;;;;;;;10.13;70.70;100586.88;108123;1254;73708;-65
2023/12/18 18:04:44;;;;;;;42.10;22.60;;;;;;;10.13;70.61;100587.23;108124;1253;70824;-65
2023/12/18 18:07:12;;;;;;;40.90;23.20;;;;;;;10.18;70.47;100585.88;108249;1254;73883;-65
2023/12/18 18:09:39;;;;;;;41.30;21.70;;;;;;;10.19;70.50;100586.71;108181;1254;60473;-66
2023/12/18 18:12:06;;;;;;;42.10;20.70;;;;;;;10.20;70.27;100588.12;108181;1252;60422;-67
2023/12/18 18:14:33;;;;;;;39.50;22.60;;;;;;;10.16;70.46;100595.21;108169;1253;73670;-68
2023/12/18 18:17:01;;;;;;;36.20;21.20;;;;;;;10.20;70.20;100603.02;108232;1253;70756;-68
2023/12/18 18:19:28;;;;;;;35.90;20.90;;;;;;;10.23;70.27;100605.39;108184;1254;72673;-67
2023/12/18 18:21:55;;;;;;;39.50;20.80;;;;;;;10.30;69.92;100604.16;108144;1253;60333;-68
2023/12/18 18:24:22;;;;;;;35.90;21.90;;;;;;;10.37;69.60;100607.84;108173;1254;60201;-67
2023/12/18 18:26:50;;;;;;;35.80;20.00;;;;;;;10.40;69.57;100607.73;108124;1254;73851;-67
2023/12/18 18:32:05;;;;;;;32.30;18.10;;;;;;;8.53;76.91;100609.64;105738;1291;599278;-94